Time;durP1;ratioP1;P1;durP2;ratioP2;P2;SDS_P1;SDS_P2;PMS_P1;PMS_P2;Temp;Humidity;BMP_temperature;BMP_pressure;BME280_temperature;BME280_humidity;BME280_pressure;Samples;Min_cycle;Max_cycle;Signal;HPM_P1;HPM_P2
2022/11/08 00:03:20;;;;;;;8.30;2.22;;;13.40;99.90;;;;;;4125432;28;20043;-62
2022/11/08 00:14:38;;;;;;;5.75;1.90;;;13.30;99.90;;;;;;4125644;28;20114;-61
2022/11/08 00:16:38;;;;;;;6.70;1.88;;;13.30;99.90;;;;;;4127419;28;20077;-61
2022/11/08 00:18:39;;;;;;;7.93;2.28;;;13.20;99.90;;;;;;4127931;28;20389;-61
2022/11/08 00:20:39;;;;;;;6.72;2.15;;;13.20;99.90;;;;;;4124273;28;20019;-62
2022/11/08 00:22:40;;;;;;;10.13;2.83;;;13.10;99.90;;;;;;4127048;28;20096;-61
2022/11/08 00:24:41;;;;;;;6.32;2.30;;;13.20;99.90;;;;;;4126109;28;20102;-61
2022/11/08 00:26:42;;;;;;;6.18;1.95;;;13.10;99.90;;;;;;4127483;28;20038;-61
2022/11/08 00:28:42;;;;;;;9.63;2.25;;;13.10;99.90;;;;;;4127625;28;20035;-61
2022/11/08 00:30:43;;;;;;;7.85;2.30;;;13.10;99.90;;;;;;4125814;28;20026;-62
2022/11/08 00:32:43;;;;;;;6.82;2.30;;;13.10;99.90;;;;;;4127643;28;20034;-61
2022/11/08 00:34:44;;;;;;;5.00;2.08;;;13.20;99.90;;;;;;4125481;28;20048;-62
2022/11/08 00:36:45;;;;;;;9.63;2.28;;;13.20;99.90;;;;;;4124337;28;20023;-61
2022/11/08 00:38:45;;;;;;;8.15;2.22;;;13.10;99.90;;;;;;4125650;28;20037;-61
2022/11/08 00:40:46;;;;;;;7.35;2.38;;;13.20;99.90;;;;;;4129326;28;20084;-61
2022/11/08 00:42:46;;;;;;;7.00;2.33;;;13.10;99.90;;;;;;4130702;28;20402;-61
2022/11/08 00:44:47;;;;;;;5.47;2.10;;;13.20;99.90;;;;;;4129032;28;20417;-61
2022/11/08 00:46:48;;;;;;;5.93;2.10;;;13.20;99.90;;;;;;4128830;28;20588;-61
2022/11/08 00:48:48;;;;;;;6.93;2.40;;;13.20;99.90;;;;;;4125866;28;20043;-61
2022/11/08 00:50:49;;;;;;;13.30;2.20;;;13.20;99.90;;;;;;4125186;28;20111;-61
2022/11/08 00:52:49;;;;;;;6.82;2.03;;;13.20;99.90;;;;;;4126164;28;20490;-61
2022/11/08 00:54:50;;;;;;;4.43;1.85;;;13.20;99.90;;;;;;4126900;28;20065;-61
2022/11/08 00:56:50;;;;;;;3.88;2.03;;;13.30;99.90;;;;;;4126811;28;20049;-61
2022/11/08 00:58:51;;;;;;;7.68;1.75;;;13.30;99.90;;;;;;4126705;28;20088;-63
2022/11/08 01:00:52;;;;;;;5.03;1.80;;;13.30;99.90;;;;;;4125665;28;20034;-62
2022/11/08 01:03:17;;;;;;;6.50;2.08;;;13.30;99.90;;;;;;4130326;28;20030;-62
2022/11/08 01:05:13;;;;;;;6.80;1.95;;;13.30;99.90;;;;;;4132359;28;20038;-62
2022/11/08 01:07:14;;;;;;;7.57;2.30;;;13.30;99.90;;;;;;4129618;28;20118;-61
2022/11/08 01:09:14;;;;;;;7.10;1.90;;;13.30;99.90;;;;;;4129210;28;20026;-61
2022/11/08 01:11:18;;;;;;;6.00;2.20;;;13.30;99.90;;;;;;4127301;28;20029;-61
2022/11/08 01:13:19;;;;;;;5.25;2.10;;;13.30;99.90;;;;;;4124870;28;20030;-61
2022/11/08 01:15:20;;;;;;;6.25;2.42;;;13.30;99.90;;;;;;4127709;28;20146;-61
2022/11/08 01:17:21;;;;;;;10.00;2.20;;;13.30;99.90;;;;;;4129104;28;20122;-61
2022/11/08 01:19:21;;;;;;;3.80;1.90;;;13.30;99.90;;;;;;4127491;28;20097;-62
2022/11/08 01:21:23;;;;;;;3.70;1.80;;;13.30;99.90;;;;;;4128353;28;20038;-62
2022/11/08 01:23:23;;;;;;;3.88;1.52;;;13.30;99.90;;;;;;4140779;28;20034;-61
2022/11/08 01:25:24;;;;;;;7.05;2.13;;;13.30;99.90;;;;;;4126716;28;20039;-61
2022/11/08 01:27:25;;;;;;;3.50;1.63;;;13.30;99.90;;;;;;4129229;28;20104;-61
2022/11/08 01:29:25;;;;;;;5.32;1.80;;;13.30;99.90;;;;;;4126663;28;20127;-61
2022/11/08 01:31:28;;;;;;;3.70;1.65;;;13.30;99.90;;;;;;4127916;28;20042;-61
2022/11/08 01:33:29;;;;;;;5.63;1.60;;;13.30;99.90;;;;;;4129449;28;20030;-61
2022/11/08 01:35:31;;;;;;;8.30;1.98;;;13.30;99.90;;;;;;4128192;28;20044;-61
2022/11/08 01:37:31;;;;;;;3.88;1.52;;;13.30;99.90;;;;;;4129206;28;20070;-61
2022/11/08 01:39:32;;;;;;;6.68;1.98;;;13.30;99.90;;;;;;4128047;28;20100;-61
2022/11/08 01:41:32;;;;;;;7.30;1.90;;;13.30;99.90;;;;;;4124321;28;20063;-61
2022/11/08 01:43:42;;;;;;;7.03;1.48;;;13.30;99.90;;;;;;4128846;28;20037;-61
2022/11/08 01:46:19;;;;;;;4.25;2.03;;;13.30;99.90;;;;;;4128190;28;20045;-61
2022/11/08 01:48:20;;;;;;;7.97;2.53;;;13.30;99.90;;;;;;4127340;28;20042;-61
2022/11/08 01:50:21;;;;;;;4.65;1.55;;;13.30;99.90;;;;;;4126093;28;20050;-65
2022/11/08 01:52:45;;;;;;;7.15;1.83;;;13.30;99.90;;;;;;4124805;28;20429;-62
2022/11/08 01:54:57;;;;;;;4.05;1.67;;;13.20;99.90;;;;;;4128776;28;20608;-61
2022/11/08 01:57:01;;;;;;;6.55;1.70;;;13.20;99.90;;;;;;4127444;28;20469;-61
2022/11/08 01:59:06;;;;;;;5.53;1.88;;;13.20;99.90;;;;;;4127713;28;20441;-61
2022/11/08 02:01:07;;;;;;;6.70;1.98;;;13.20;99.90;;;;;;4126201;28;20138;-62
2022/11/08 02:03:12;;;;;;;5.00;2.15;;;13.20;99.90;;;;;;4127674;28;20462;-61
2022/11/08 02:05:24;;;;;;;6.90;1.83;;;13.10;99.90;;;;;;4128100;28;20038;-61
2022/11/08 02:07:26;;;;;;;9.05;1.83;;;13.10;99.90;;;;;;4128551;28;20037;-61
2022/11/08 02:09:27;;;;;;;2.83;1.77;;;13.10;99.90;;;;;;4127350;28;20042;-61
2022/11/08 02:11:29;;;;;;;5.57;2.13;;;13.00;99.90;;;;;;4126749;28;20050;-61
2022/11/08 02:13:31;;;;;;;6.15;1.90;;;13.00;99.90;;;;;;4128095;28;20027;-61
2022/11/08 02:15:32;;;;;;;5.63;2.10;;;13.00;99.90;;;;;;4127265;28;20042;-61
2022/11/08 02:17:33;;;;;;;4.30;1.60;;;13.00;99.90;;;;;;4128118;28;20035;-61
2022/11/08 02:19:38;;;;;;;5.05;1.75;;;13.00;99.90;;;;;;4127965;28;20042;-61
2022/11/08 02:21:50;;;;;;;8.77;1.98;;;13.00;99.90;;;;;;4124001;28;20527;-62
2022/11/08 02:23:56;;;;;;;4.88;1.70;;;13.00;99.90;;;;;;4124688;28;20034;-61
2022/11/08 02:25:56;;;;;;;7.85;2.17;;;12.90;99.90;;;;;;4134930;28;20038;-61
2022/11/08 02:27:57;;;;;;;4.15;1.65;;;12.90;99.90;;;;;;4123282;28;20046;-61
2022/11/08 02:29:57;;;;;;;4.90;1.85;;;12.90;99.90;;;;;;4125036;28;20034;-61
2022/11/08 02:31:59;;;;;;;3.40;1.55;;;12.80;99.90;;;;;;4126818;28;20050;-61
2022/11/08 02:34:00;;;;;;;5.53;1.42;;;12.80;99.90;;;;;;4128575;28;20030;-61
2022/11/08 02:36:01;;;;;;;5.85;1.83;;;12.70;99.90;;;;;;4127539;28;20065;-61
2022/11/08 02:38:02;;;;;;;4.25;1.92;;;12.80;99.90;;;;;;4127891;28;20041;-61
2022/11/08 02:40:04;;;;;;;8.00;1.60;;;12.80;99.90;;;;;;4126603;28;20297;-63
2022/11/08 02:42:05;;;;;;;4.30;1.90;;;12.70;99.90;;;;;;4125138;28;20065;-61
2022/11/08 02:44:05;;;;;;;5.78;1.98;;;12.70;99.90;;;;;;4128146;28;20034;-61
2022/11/08 02:46:06;;;;;;;5.88;1.77;;;12.70;99.90;;;;;;4127643;28;20042;-61
2022/11/08 02:48:07;;;;;;;6.63;2.13;;;12.60;99.90;;;;;;4128960;28;20046;-61
2022/11/08 02:50:08;;;;;;;7.85;1.83;;;12.60;99.90;;;;;;4126890;28;20062;-62
2022/11/08 02:52:09;;;;;;;4.47;1.83;;;12.60;99.90;;;;;;4125062;28;20458;-62
2022/11/08 02:54:09;;;;;;;3.72;1.50;;;12.60;99.90;;;;;;4126942;28;20042;-61
2022/11/08 02:56:10;;;;;;;5.57;1.63;;;12.70;99.90;;;;;;4123851;28;20038;-61
2022/11/08 02:58:11;;;;;;;4.78;1.73;;;12.60;99.90;;;;;;4127293;28;20041;-61
2022/11/08 03:00:12;;;;;;;7.45;1.83;;;12.60;99.90;;;;;;4121638;28;20042;-62
2022/11/08 03:02:13;;;;;;;5.15;1.80;;;12.60;99.90;;;;;;4126420;28;20494;-61
2022/11/08 03:04:13;;;;;;;7.45;1.88;;;12.60;99.90;;;;;;4127983;28;20061;-61
2022/11/08 03:06:14;;;;;;;4.07;1.50;;;12.50;99.90;;;;;;4127846;28;20552;-61
2022/11/08 03:08:15;;;;;;;4.95;1.85;;;12.60;99.90;;;;;;4126123;28;20502;-61
2022/11/08 03:10:16;;;;;;;6.35;1.75;;;12.60;99.90;;;;;;4125215;28;20046;-61
2022/11/08 03:12:18;;;;;;;7.47;2.05;;;12.60;99.90;;;;;;4126261;28;20062;-61
2022/11/08 03:14:19;;;;;;;4.97;1.52;;;12.60;99.90;;;;;;4128619;28;20030;-61
2022/11/08 03:16:20;;;;;;;8.60;2.00;;;12.60;99.90;;;;;;4127916;28;20397;-61
2022/11/08 03:18:20;;;;;;;3.75;1.50;;;12.50;99.90;;;;;;4128587;28;20088;-61
2022/11/08 03:20:21;;;;;;;5.20;1.63;;;12.60;99.90;;;;;;4125043;28;20386;-61
2022/11/08 03:22:22;;;;;;;5.68;1.70;;;12.50;99.90;;;;;;4126205;28;20049;-63
2022/11/08 03:24:22;;;;;;;5.88;1.77;;;12.50;99.90;;;;;;4128396;28;20038;-62
2022/11/08 03:26:23;;;;;;;5.40;1.63;;;12.50;99.90;;;;;;4127872;28;20462;-62
2022/11/08 03:28:23;;;;;;;7.43;1.83;;;12.60;99.90;;;;;;4127651;28;20042;-61
2022/11/08 03:30:24;;;;;;;6.18;1.80;;;12.60;99.90;;;;;;4126681;28;20066;-61
2022/11/08 03:32:24;;;;;;;6.07;1.85;;;12.60;99.90;;;;;;4124169;28;20050;-62
2022/11/08 03:34:25;;;;;;;6.00;1.77;;;12.60;99.90;;;;;;4128243;28;20132;-61
2022/11/08 03:36:25;;;;;;;10.05;2.10;;;12.60;99.90;;;;;;4126862;28;20041;-61
2022/11/08 03:38:26;;;;;;;6.30;1.90;;;12.60;99.90;;;;;;4128280;28;20465;-61
2022/11/08 03:40:27;;;;;;;4.78;1.50;;;12.60;99.90;;;;;;4126798;28;20133;-61
2022/11/08 03:42:27;;;;;;;5.03;1.63;;;12.70;99.90;;;;;;4124446;28;20081;-61
2022/11/08 03:44:29;;;;;;;8.38;1.83;;;12.70;99.90;;;;;;4128307;28;20575;-61
2022/11/08 03:46:30;;;;;;;5.45;1.73;;;12.70;99.90;;;;;;4127512;28;20031;-61
2022/11/08 03:48:30;;;;;;;7.93;1.73;;;12.60;99.90;;;;;;4128224;28;20042;-61
2022/11/08 03:50:31;;;;;;;4.80;1.63;;;12.70;99.90;;;;;;4125994;28;20049;-61
2022/11/08 03:52:38;;;;;;;4.90;2.00;;;12.70;99.90;;;;;;4126279;28;20042;-61
2022/11/08 03:54:38;;;;;;;5.80;1.55;;;12.70;99.90;;;;;;4124266;28;20034;-61
2022/11/08 03:56:39;;;;;;;2.97;1.40;;;12.70;99.90;;;;;;4127657;28;20023;-62
2022/11/08 03:58:40;;;;;;;3.78;1.23;;;12.70;99.90;;;;;;4128120;28;20031;-61
2022/11/08 04:00:40;;;;;;;4.53;1.92;;;12.80;99.90;;;;;;4124614;28;20054;-62
2022/11/08 04:02:41;;;;;;;3.45;1.60;;;12.70;99.90;;;;;;4126990;28;20101;-61
2022/11/08 04:04:41;;;;;;;5.60;1.83;;;12.70;99.90;;;;;;4127134;28;20093;-61
2022/11/08 04:06:42;;;;;;;4.32;1.75;;;12.70;99.90;;;;;;4123819;28;20162;-61
2022/11/08 04:08:42;;;;;;;4.40;1.90;;;12.70;99.90;;;;;;4127396;28;20031;-61
2022/11/08 04:10:43;;;;;;;4.35;1.40;;;12.70;99.90;;;;;;4125744;28;20110;-61
2022/11/08 04:15:16;;;;;;;3.83;1.50;;;12.60;99.90;;;;;;4124204;28;20038;-62
2022/11/08 04:17:17;;;;;;;7.60;1.83;;;12.60;99.90;;;;;;4130985;28;20109;-61
2022/11/08 04:21:36;;;;;;;4.07;1.60;;;12.60;99.90;;;;;;4128385;28;20081;-60
2022/11/08 04:23:37;;;;;;;3.72;1.73;;;12.70;99.90;;;;;;4128167;28;20034;-61
2022/11/08 04:25:38;;;;;;;3.88;1.52;;;12.60;99.90;;;;;;4130614;28;20101;-61
2022/11/08 04:27:38;;;;;;;7.38;1.88;;;12.60;99.90;;;;;;4129943;28;20027;-65
2022/11/08 04:29:39;;;;;;;4.00;1.45;;;12.60;99.90;;;;;;4129530;28;20073;-62
2022/11/08 04:31:40;;;;;;;5.25;1.90;;;12.60;99.90;;;;;;4130131;28;20039;-62
2022/11/08 04:33:41;;;;;;;5.10;1.73;;;12.60;99.90;;;;;;4129828;28;20061;-62
2022/11/08 04:35:41;;;;;;;4.55;1.88;;;12.60;99.90;;;;;;4129083;28;20038;-62
2022/11/08 04:37:42;;;;;;;5.60;1.73;;;12.60;99.90;;;;;;4129699;28;20048;-61
2022/11/08 04:39:42;;;;;;;8.30;2.05;;;12.60;99.90;;;;;;4129657;28;20038;-61
2022/11/08 04:41:43;;;;;;;4.25;1.85;;;12.50;99.90;;;;;;4129993;28;20034;-61
2022/11/08 04:43:44;;;;;;;8.40;2.22;;;12.60;99.90;;;;;;4124259;28;20038;-61
2022/11/08 04:45:44;;;;;;;5.30;2.10;;;12.60;99.90;;;;;;4129847;28;20030;-61
2022/11/08 04:47:46;;;;;;;5.35;1.85;;;12.60;99.90;;;;;;4131065;28;20027;-61
2022/11/08 04:49:46;;;;;;;4.63;1.98;;;12.50;99.90;;;;;;4127643;28;20054;-61
2022/11/08 04:51:47;;;;;;;7.70;2.03;;;12.60;99.90;;;;;;4129976;28;20037;-61
2022/11/08 04:53:48;;;;;;;5.97;1.95;;;12.60;99.90;;;;;;4130119;28;20112;-61
2022/11/08 04:55:48;;;;;;;5.93;1.77;;;12.60;99.90;;;;;;4129143;28;20057;-61
2022/11/08 04:57:49;;;;;;;8.30;2.33;;;12.50;99.90;;;;;;4130653;28;20507;-61
2022/11/08 04:59:49;;;;;;;6.68;2.28;;;12.50;99.90;;;;;;4125947;28;20474;-61
2022/11/08 05:01:50;;;;;;;3.55;1.40;;;12.60;99.90;;;;;;4127793;28;20050;-61
2022/11/08 05:03:52;;;;;;;6.43;2.22;;;12.50;99.90;;;;;;4130090;28;20035;-61
2022/11/08 05:05:53;;;;;;;4.07;1.75;;;12.60;99.90;;;;;;4129675;28;20022;-61
2022/11/08 05:07:54;;;;;;;4.57;1.95;;;12.50;99.90;;;;;;4125621;28;20161;-61
2022/11/08 05:09:55;;;;;;;4.35;2.08;;;12.50;99.90;;;;;;4126547;28;20042;-61
2022/11/08 05:11:55;;;;;;;7.45;2.53;;;12.50;99.90;;;;;;4123532;28;20045;-61
2022/11/08 05:13:56;;;;;;;4.93;2.08;;;12.50;99.90;;;;;;4125880;28;20034;-61
2022/11/08 05:16:02;;;;;;;5.75;1.60;;;12.50;99.90;;;;;;4129509;28;20050;-61
2022/11/08 05:18:02;;;;;;;8.55;2.33;;;12.50;99.90;;;;;;4122286;28;20026;-61
2022/11/08 05:24:43;;;;;;;9.02;2.13;;;12.50;99.90;;;;;;4129815;28;20034;-61
2022/11/08 05:26:46;;;;;;;4.30;1.75;;;12.50;99.90;;;;;;4128112;28;20041;-61
2022/11/08 05:28:46;;;;;;;;;;;12.50;99.90;;;;;;4126453;28;20038;-61
2022/11/08 05:30:55;;;;;;;6.65;2.00;;;12.50;99.90;;;;;;4128398;28;20357;-61
2022/11/08 05:32:55;;;;;;;4.25;1.67;;;12.50;99.90;;;;;;4126235;28;20081;-61
2022/11/08 05:34:56;;;;;;;4.95;2.10;;;12.50;99.90;;;;;;4128745;28;20039;-61
2022/11/08 05:36:57;;;;;;;4.30;1.52;;;12.50;99.90;;;;;;4128654;28;20085;-61
2022/11/08 05:38:57;;;;;;;5.30;2.20;;;12.50;99.90;;;;;;4127434;28;20031;-61
2022/11/08 05:41:14;;;;;;;5.70;2.38;;;12.50;99.90;;;;;;4128115;28;20068;-61
2022/11/08 05:43:15;;;;;;;6.95;1.98;;;12.50;99.90;;;;;;4144339;28;20030;-61
2022/11/08 05:45:15;;;;;;;3.70;1.73;;;12.50;99.90;;;;;;4143710;28;20030;-61
2022/11/08 05:47:16;;;;;;;3.90;1.63;;;12.50;99.90;;;;;;4129527;28;20034;-61
2022/11/08 05:49:16;;;;;;;4.93;2.10;;;12.50;99.90;;;;;;4126995;28;20031;-61
2022/11/08 05:51:18;;;;;;;3.58;1.70;;;12.50;99.90;;;;;;4127983;28;20032;-60
2022/11/08 05:53:19;;;;;;;5.22;2.08;;;12.50;99.90;;;;;;4128271;28;20162;-61
2022/11/08 05:55:20;;;;;;;6.10;2.08;;;12.50;99.90;;;;;;4129185;28;20035;-60
2022/11/08 05:57:21;;;;;;;5.47;1.92;;;12.50;99.90;;;;;;4127476;28;20031;-61
2022/11/08 05:59:21;;;;;;;6.05;1.85;;;12.50;99.90;;;;;;4127741;28;20046;-61
2022/11/08 06:01:22;;;;;;;5.78;2.38;;;12.50;99.90;;;;;;4127376;28;20074;-61
2022/11/08 06:03:22;;;;;;;4.80;1.80;;;12.50;99.90;;;;;;4128786;28;20521;-61
2022/11/08 06:05:23;;;;;;;5.47;2.13;;;12.50;99.90;;;;;;4128619;28;20042;-60
2022/11/08 06:07:24;;;;;;;5.70;2.50;;;12.50;99.90;;;;;;4128999;28;20030;-61
2022/11/08 06:09:24;;;;;;;5.47;2.28;;;12.50;99.90;;;;;;4124624;28;20573;-61
2022/11/08 06:11:26;;;;;;;4.95;1.95;;;12.40;99.90;;;;;;4120629;28;20492;-62
2022/11/08 06:13:27;;;;;;;3.85;2.50;;;12.40;99.90;;;;;;4122520;28;20050;-61
2022/11/08 06:15:27;;;;;;;6.10;2.00;;;12.40;99.90;;;;;;4126077;28;21151;-61
2022/11/08 06:17:28;;;;;;;4.40;1.88;;;12.40;99.90;;;;;;4123996;28;20046;-61
2022/11/08 06:19:28;;;;;;;6.63;2.38;;;12.50;99.90;;;;;;4123080;28;20026;-61
2022/11/08 06:21:29;;;;;;;5.22;2.40;;;12.40;99.90;;;;;;4121028;28;20111;-61
2022/11/08 06:23:30;;;;;;;3.97;1.90;;;12.50;99.90;;;;;;4119526;28;20038;-60
2022/11/08 06:25:31;;;;;;;8.38;2.28;;;12.50;99.90;;;;;;4123683;28;20034;-61
2022/11/08 06:27:32;;;;;;;4.82;2.35;;;12.50;99.90;;;;;;4120650;28;20043;-61
2022/11/08 06:29:32;;;;;;;4.13;2.20;;;12.50;99.90;;;;;;4122187;28;20038;-61
2022/11/08 06:31:34;;;;;;;4.53;2.20;;;12.40;99.90;;;;;;4121162;28;20038;-61
2022/11/08 06:33:35;;;;;;;4.73;2.40;;;12.40;99.90;;;;;;4124180;28;20054;-61
2022/11/08 06:35:36;;;;;;;11.25;2.65;;;12.40;99.90;;;;;;4137088;28;20034;-61
2022/11/08 06:37:37;;;;;;;6.88;2.90;;;12.40;99.90;;;;;;4119946;28;20433;-61
2022/11/08 06:39:37;;;;;;;6.90;2.42;;;12.40;99.90;;;;;;4120032;28;20038;-61
2022/11/08 06:41:38;;;;;;;5.03;2.03;;;12.40;99.90;;;;;;4121992;28;20034;-61
2022/11/08 06:43:38;;;;;;;4.53;2.20;;;12.40;99.90;;;;;;4124305;28;20038;-61
2022/11/08 06:45:40;;;;;;;4.03;2.17;;;12.40;99.90;;;;;;4124533;28;20145;-61
2022/11/08 06:47:40;;;;;;;7.57;2.08;;;12.40;99.90;;;;;;4123341;28;20070;-61
2022/11/08 06:49:41;;;;;;;7.95;2.30;;;12.40;99.90;;;;;;4122252;28;20035;-63
2022/11/08 06:51:41;;;;;;;5.80;2.35;;;12.40;99.90;;;;;;4122603;28;20031;-62
2022/11/08 06:53:42;;;;;;;5.82;2.17;;;12.40;99.90;;;;;;4125052;28;20138;-62
2022/11/08 06:55:43;;;;;;;7.03;2.10;;;12.40;99.90;;;;;;4124269;28;20505;-61
2022/11/08 06:57:43;;;;;;;4.45;2.28;;;12.40;99.90;;;;;;4124513;28;20042;-63
2022/11/08 06:59:44;;;;;;;3.20;1.80;;;12.40;99.90;;;;;;4123516;28;20398;-64
2022/11/08 07:01:44;;;;;;;5.00;2.17;;;12.40;99.90;;;;;;4124646;28;20493;-64
2022/11/08 07:03:45;;;;;;;4.68;2.60;;;12.40;99.90;;;;;;4125656;28;20042;-64
2022/11/08 07:05:46;;;;;;;4.13;2.28;;;12.50;99.90;;;;;;4123991;28;20076;-64
2022/11/08 07:07:50;;;;;;;4.95;2.47;;;12.50;99.90;;;;;;4123805;28;20533;-64
2022/11/08 07:09:51;;;;;;;3.13;2.00;;;12.40;99.90;;;;;;4122758;28;20520;-65
2022/11/08 07:11:52;;;;;;;4.55;2.00;;;12.50;99.90;;;;;;4123873;28;20050;-64
2022/11/08 07:13:52;;;;;;;8.15;2.42;;;12.50;99.90;;;;;;4125505;28;20062;-64
2022/11/08 07:15:57;;;;;;;9.25;2.28;;;12.50;99.90;;;;;;4122956;28;20030;-64
2022/11/08 07:18:05;;;;;;;4.82;2.17;;;12.50;99.90;;;;;;4122904;28;20034;-64
2022/11/08 07:20:07;;;;;;;5.80;2.40;;;12.50;99.90;;;;;;4122034;28;20050;-65
2022/11/08 07:22:07;;;;;;;4.63;1.98;;;12.50;99.90;;;;;;4122427;28;21050;-64
2022/11/08 07:24:08;;;;;;;6.70;1.95;;;12.50;99.90;;;;;;4124088;28;20038;-64
2022/11/08 07:26:10;;;;;;;7.93;2.60;;;12.50;99.90;;;;;;4124012;28;20042;-64
2022/11/08 07:28:16;;;;;;;5.28;2.25;;;12.60;99.90;;;;;;4124744;28;20042;-64
2022/11/08 07:30:17;;;;;;;5.10;2.00;;;12.60;99.90;;;;;;4123212;28;20117;-64
2022/11/08 07:32:17;;;;;;;5.03;2.47;;;12.60;99.90;;;;;;4124461;28;20068;-63
2022/11/08 07:34:18;;;;;;;5.75;2.28;;;12.60;99.90;;;;;;4125286;28;20041;-64
2022/11/08 07:36:19;;;;;;;9.30;3.20;;;12.60;99.90;;;;;;4135399;28;20046;-64
2022/11/08 07:38:20;;;;;;;9.88;3.50;;;12.70;99.90;;;;;;4125039;28;20066;-64
2022/11/08 07:40:21;;;;;;;8.38;3.88;;;12.70;99.90;;;;;;4122676;28;20042;-64
2022/11/08 07:42:22;;;;;;;8.52;3.50;;;12.80;99.90;;;;;;4122850;28;20555;-64
2022/11/08 07:44:22;;;;;;;11.50;3.88;;;12.80;99.90;;;;;;4124736;28;20061;-64
2022/11/08 07:46:23;;;;;;;9.15;3.42;;;12.90;99.90;;;;;;4122100;28;20491;-65
2022/11/08 07:48:25;;;;;;;6.15;2.80;;;13.00;99.90;;;;;;4118476;28;20371;-65
2022/11/08 07:50:26;;;;;;;8.60;3.35;;;13.10;99.90;;;;;;4123129;28;20042;-65
2022/11/08 07:52:27;;;;;;;5.88;2.88;;;13.30;99.90;;;;;;4124155;28;20647;-66
2022/11/08 07:54:27;;;;;;;4.97;2.17;;;13.50;99.90;;;;;;4125104;28;20038;-65
2022/11/08 07:56:28;;;;;;;3.42;1.67;;;13.60;99.90;;;;;;4121594;28;20042;-65
2022/11/08 07:58:28;;;;;;;3.28;1.83;;;13.70;99.90;;;;;;4124952;28;20039;-65
2022/11/08 08:00:30;;;;;;;4.40;1.65;;;13.90;99.90;;;;;;4118742;28;20733;-65
2022/11/08 08:02:31;;;;;;;5.35;1.88;;;14.00;99.90;;;;;;4124559;28;20031;-65
2022/11/08 08:04:32;;;;;;;4.80;1.88;;;14.10;99.90;;;;;;4124250;28;20043;-65
2022/11/08 08:06:32;;;;;;;7.10;2.00;;;14.20;99.90;;;;;;4123737;28;20089;-65
2022/11/08 08:08:33;;;;;;;5.38;1.85;;;14.30;99.90;;;;;;4124816;28;20553;-65
2022/11/08 08:10:34;;;;;;;2.80;1.50;;;14.40;99.90;;;;;;4123328;28;20373;-64
2022/11/08 08:12:35;;;;;;;3.78;1.73;;;14.50;99.90;;;;;;4126007;28;20042;-65
2022/11/08 08:14:36;;;;;;;4.68;1.80;;;14.50;99.90;;;;;;4123345;28;20516;-65
2022/11/08 08:16:36;;;;;;;1.77;1.27;;;14.50;99.90;;;;;;4128506;28;20129;-65
2022/11/08 08:18:37;;;;;;;5.68;2.17;;;14.50;99.90;;;;;;4124027;28;20122;-65
2022/11/08 08:20:38;;;;;;;4.05;1.75;;;14.40;99.90;;;;;;4123407;28;20855;-65
2022/11/08 08:22:46;;;;;;;3.85;1.73;;;14.30;99.90;;;;;;4124390;28;20037;-65
2022/11/08 08:24:46;;;;;;;6.50;1.52;;;14.30;99.90;;;;;;4122064;28;20039;-65
2022/11/08 08:26:47;;;;;;;7.32;2.00;;;14.30;99.90;;;;;;4123268;28;20075;-64
2022/11/08 08:28:47;;;;;;;4.65;1.80;;;14.30;99.90;;;;;;4121137;28;20070;-65
2022/11/08 08:30:48;;;;;;;3.13;1.65;;;14.30;99.90;;;;;;4123020;28;20049;-65
2022/11/08 08:32:49;;;;;;;3.83;1.60;;;14.30;99.90;;;;;;4119075;28;20030;-65
2022/11/08 08:34:50;;;;;;;3.65;1.63;;;14.30;99.90;;;;;;4123575;28;20038;-65
2022/11/08 08:36:50;;;;;;;2.80;1.67;;;14.40;99.90;;;;;;4123525;28;20536;-65
2022/11/08 08:38:51;;;;;;;3.25;1.50;;;14.30;99.90;;;;;;4124061;28;20375;-65
2022/11/08 08:40:52;;;;;;;4.72;1.80;;;14.30;99.90;;;;;;4123371;28;20073;-64
2022/11/08 08:42:52;;;;;;;4.90;1.60;;;14.30;99.90;;;;;;4120594;28;20717;-64
2022/11/08 08:44:53;;;;;;;5.78;2.38;;;14.40;99.90;;;;;;4123538;28;20058;-65
2022/11/08 08:46:54;;;;;;;4.47;1.80;;;14.40;99.90;;;;;;4123295;28;20555;-65
2022/11/08 08:48:55;;;;;;;3.22;1.50;;;14.40;99.90;;;;;;4123720;28;20061;-65
2022/11/08 08:50:55;;;;;;;8.38;2.00;;;14.30;99.90;;;;;;4122471;28;20093;-65
2022/11/08 08:53:03;;;;;;;3.63;1.88;;;14.30;99.90;;;;;;4122185;28;20122;-64
2022/11/08 08:55:04;;;;;;;3.67;1.83;;;14.20;99.90;;;;;;4124570;28;20042;-67
2022/11/08 08:57:05;;;;;;;3.80;1.48;;;14.20;99.90;;;;;;4123367;28;20467;-65
2022/11/08 08:59:06;;;;;;;4.50;1.73;;;14.10;99.90;;;;;;4121885;28;20051;-65
2022/11/08 09:01:07;;;;;;;5.07;1.70;;;14.00;99.90;;;;;;4123009;28;20560;-64
2022/11/08 09:03:09;;;;;;;3.42;1.55;;;14.00;99.90;;;;;;4126100;28;20023;-65
2022/11/08 09:05:12;;;;;;;4.82;1.85;;;14.00;99.90;;;;;;4126903;28;20039;-65
2022/11/08 09:07:12;;;;;;;;;;;14.00;99.90;;;;;;4127249;28;20039;-65
2022/11/08 09:09:13;;;;;;;4.43;1.77;;;14.00;99.90;;;;;;4126123;28;19918;-66
2022/11/08 09:11:13;;;;;;;2.83;1.50;;;14.00;99.90;;;;;;4140251;28;20053;-65
2022/11/08 09:13:14;;;;;;;6.35;1.70;;;14.00;99.90;;;;;;4125184;28;20883;-65
2022/11/08 09:15:15;;;;;;;3.58;1.83;;;14.00;99.90;;;;;;4124484;28;20042;-65
2022/11/08 09:17:16;;;;;;;3.67;1.95;;;13.90;99.90;;;;;;4126281;28;20045;-63
2022/11/08 09:19:16;;;;;;;4.05;1.88;;;14.00;99.90;;;;;;4123561;28;20066;-65
2022/11/08 09:21:17;;;;;;;4.32;1.80;;;14.00;99.90;;;;;;4124993;28;21072;-65
2022/11/08 09:23:17;;;;;;;8.70;1.85;;;13.90;99.90;;;;;;4124026;28;20048;-65
2022/11/08 09:25:18;;;;;;;6.28;1.80;;;13.90;99.90;;;;;;4123933;28;20797;-65
2022/11/08 09:27:19;;;;;;;3.03;1.55;;;13.90;99.90;;;;;;4124081;28;20389;-65
2022/11/08 09:29:19;;;;;;;5.38;2.15;;;13.90;99.90;;;;;;4121645;28;20432;-64
2022/11/08 09:31:20;;;;;;;6.20;1.63;;;13.90;99.90;;;;;;4125199;28;20038;-64
2022/11/08 09:33:20;;;;;;;5.70;1.73;;;13.90;99.90;;;;;;4123601;28;20430;-65
2022/11/08 09:35:21;;;;;;;3.17;1.33;;;13.90;99.90;;;;;;4125430;28;20050;-65
2022/11/08 09:37:22;;;;;;;6.45;1.60;;;13.90;99.90;;;;;;4123016;28;20080;-65
2022/11/08 09:39:23;;;;;;;5.90;1.90;;;13.90;99.90;;;;;;4123373;28;20560;-65
2022/11/08 09:41:41;;;;;;;9.25;1.95;;;13.90;99.90;;;;;;4124236;28;20077;-65
2022/11/08 09:43:59;;;;;;;4.70;2.05;;;13.90;99.90;;;;;;4123386;28;20193;-64
2022/11/08 09:45:59;;;;;;;5.13;1.70;;;14.00;99.90;;;;;;4124309;28;20483;-65
2022/11/08 09:48:04;;;;;;;5.28;1.50;;;13.90;99.90;;;;;;4125773;28;20065;-65
2022/11/08 09:50:32;;;;;;;5.35;1.90;;;13.90;99.90;;;;;;4124229;28;20041;-66
2022/11/08 09:52:34;;;;;;;4.05;1.67;;;13.90;99.90;;;;;;4118606;28;20038;-65
2022/11/08 09:54:40;;;;;;;3.55;1.52;;;13.90;99.90;;;;;;4122476;28;20042;-65
2022/11/08 09:56:41;;;;;;;3.55;1.80;;;13.90;99.90;;;;;;4137725;28;20127;-65
2022/11/08 09:59:03;;;;;;;3.50;1.85;;;13.90;99.90;;;;;;4122189;28;20035;-65
2022/11/08 10:01:04;;;;;;;8.02;1.85;;;14.00;99.90;;;;;;4122226;28;20089;-65
2022/11/08 10:03:06;;;;;;;5.05;1.73;;;14.00;99.90;;;;;;4124617;28;20034;-65
2022/11/08 10:05:14;;;;;;;5.55;1.70;;;14.00;99.90;;;;;;4121795;28;20532;-65
2022/11/08 10:07:23;;;;;;;3.67;1.52;;;14.00;99.90;;;;;;4138837;28;20034;-65
2022/11/08 10:10:04;;;;;;;4.78;2.15;;;14.10;99.90;;;;;;4122838;28;20054;-63
2022/11/08 10:13:07;;;;;;;2.85;1.67;;;14.10;99.90;;;;;;4119771;28;20444;-63
2022/11/08 10:15:21;;;;;;;6.05;1.77;;;14.10;99.90;;;;;;4088596;29;20046;-64
2022/11/08 10:17:47;;;;;;;3.55;1.67;;;14.10;99.90;;;;;;4088188;28;20039;-64
2022/11/08 10:20:07;;;;;;;2.75;1.48;;;14.20;99.90;;;;;;4105782;28;20096;-63
2022/11/08 10:22:22;;;;;;;2.88;1.50;;;14.20;99.90;;;;;;4139489;28;20496;-63
2022/11/08 10:24:47;;;;;;;4.07;1.52;;;14.20;99.90;;;;;;4140360;28;20038;-63
2022/11/08 10:26:50;;;;;;;4.53;1.70;;;14.30;99.90;;;;;;4123466;28;20093;-63
2022/11/08 10:28:57;;;;;;;5.50;2.00;;;14.20;99.90;;;;;;4127486;28;20026;-64
2022/11/08 10:30:58;;;;;;;2.95;1.55;;;14.30;99.90;;;;;;4136600;28;20525;-64
2022/11/08 10:33:00;;;;;;;3.95;1.73;;;14.40;99.90;;;;;;4124352;28;20545;-65
2022/11/08 10:35:12;;;;;;;4.00;2.03;;;14.30;99.90;;;;;;4123273;28;20030;-64
2022/11/08 10:37:15;;;;;;;7.05;1.83;;;14.40;99.90;;;;;;4123253;28;20690;-64
2022/11/08 10:39:26;;;;;;;4.43;2.10;;;14.40;99.90;;;;;;4123074;28;20084;-64
2022/11/08 10:41:46;;;;;;;4.07;1.90;;;14.40;99.90;;;;;;4122726;28;20034;-64
2022/11/08 10:44:11;;;;;;;5.20;1.90;;;14.40;99.90;;;;;;4125981;28;20065;-64
2022/11/08 10:46:50;;;;;;;4.95;1.85;;;14.50;99.90;;;;;;4123482;28;20261;-64
2022/11/08 10:48:50;;;;;;;2.55;1.60;;;14.50;99.90;;;;;;4125107;28;20026;-64
2022/11/08 10:50:52;;;;;;;2.58;1.70;;;14.50;99.90;;;;;;4120760;28;20038;-64
2022/11/08 10:52:58;;;;;;;3.97;1.87;;;14.50;99.90;;;;;;4123231;28;20126;-64
2022/11/08 10:55:00;;;;;;;4.40;1.80;;;14.50;99.90;;;;;;4139968;28;20363;-64
2022/11/08 10:57:00;;;;;;;3.75;1.55;;;14.50;99.90;;;;;;4124423;28;20038;-64
2022/11/08 10:59:01;;;;;;;6.80;1.90;;;14.50;99.90;;;;;;4122242;28;20437;-64
2022/11/08 11:01:22;;;;;;;4.47;1.70;;;14.60;99.90;;;;;;4122611;28;20397;-64